sensor_id;sensor_type;location;lat;lon;timestamp;P1;durP1;ratioP1;P2;durP2;ratioP2
80409;SDS011;69746;45.596;10.154;2023-12-20T00:00:19;3.83;;;2.28;;
80409;SDS011;69746;45.596;10.154;2023-12-20T00:02:45;3.92;;;2.30;;
80409;SDS011;69746;45.596;10.154;2023-12-20T00:05:13;3.65;;;2.45;;
80409;SDS011;69746;45.596;10.154;2023-12-20T00:07:39;3.83;;;2.15;;
80409;SDS011;69746;45.596;10.154;2023-12-20T00:10:05;4.15;;;2.58;;
80409;SDS011;69746;45.596;10.154;2023-12-20T00:12:32;3.65;;;2.05;;
80409;SDS011;69746;45.596;10.154;2023-12-20T00:14:58;3.25;;;2.15;;
80409;SDS011;69746;45.596;10.154;2023-12-20T00:17:24;3.30;;;2.40;;
80409;SDS011;69746;45.596;10.154;2023-12-20T00:19:50;4.22;;;2.20;;
80409;SDS011;69746;45.596;10.154;2023-12-20T00:22:16;3.03;;;2.17;;
80409;SDS011;69746;45.596;10.154;2023-12-20T00:24:43;3.10;;;2.00;;
80409;SDS011;69746;45.596;10.154;2023-12-20T00:27:09;3.72;;;2.30;;
80409;SDS011;69746;45.596;10.154;2023-12-20T00:29:35;3.53;;;2.28;;
80409;SDS011;69746;45.596;10.154;2023-12-20T00:32:01;2.92;;;2.00;;
80409;SDS011;69746;45.596;10.154;2023-12-20T00:34:27;3.45;;;2.10;;
80409;SDS011;69746;45.596;10.154;2023-12-20T00:36:56;3.70;;;2.20;;
80409;SDS011;69746;45.596;10.154;2023-12-20T00:39:22;3.85;;;2.20;;
80409;SDS011;69746;45.596;10.154;2023-12-20T00:41:48;3.38;;;2.20;;
80409;SDS011;69746;45.596;10.154;2023-12-20T00:44:14;3.72;;;2.17;;
80409;SDS011;69746;45.596;10.154;2023-12-20T00:46:43;3.95;;;1.98;;
80409;SDS011;69746;45.596;10.154;2023-12-20T00:49:09;2.78;;;2.22;;
80409;SDS011;69746;45.596;10.154;2023-12-20T00:51:35;3.63;;;2.28;;
80409;SDS011;69746;45.596;10.154;2023-12-20T00:54:01;3.30;;;2.20;;
80409;SDS011;69746;45.596;10.154;2023-12-20T00:56:27;3.67;;;2.38;;
80409;SDS011;69746;45.596;10.154;2023-12-20T00:58:53;3.63;;;2.10;;
80409;SDS011;69746;45.596;10.154;2023-12-20T01:01:19;4.22;;;2.25;;
80409;SDS011;69746;45.596;10.154;2023-12-20T01:03:46;3.22;;;2.10;;
80409;SDS011;69746;45.596;10.154;2023-12-20T01:06:13;3.47;;;2.45;;
80409;SDS011;69746;45.596;10.154;2023-12-20T01:08:39;4.88;;;2.33;;
80409;SDS011;69746;45.596;10.154;2023-12-20T01:11:05;3.65;;;2.45;;
80409;SDS011;69746;45.596;10.154;2023-12-20T01:13:34;3.28;;;2.30;;
80409;SDS011;69746;45.596;10.154;2023-12-20T01:16:00;3.35;;;2.13;;
80409;SDS011;69746;45.596;10.154;2023-12-20T01:18:26;2.85;;;2.00;;
80409;SDS011;69746;45.596;10.154;2023-12-20T01:20:53;2.75;;;1.88;;
80409;SDS011;69746;45.596;10.154;2023-12-20T01:23:19;3.42;;;2.00;;
80409;SDS011;69746;45.596;10.154;2023-12-20T01:25:45;3.08;;;1.90;;
80409;SDS011;69746;45.596;10.154;2023-12-20T01:28:11;3.70;;;2.13;;
80409;SDS011;69746;45.596;10.154;2023-12-20T01:30:37;4.30;;;2.40;;
80409;SDS011;69746;45.596;10.154;2023-12-20T01:33:06;2.85;;;2.15;;
80409;SDS011;69746;45.596;10.154;2023-12-20T01:35:32;3.13;;;2.25;;
80409;SDS011;69746;45.596;10.154;2023-12-20T01:37:58;3.22;;;2.25;;
80409;SDS011;69746;45.596;10.154;2023-12-20T01:40:24;2.55;;;1.90;;
80409;SDS011;69746;45.596;10.154;2023-12-20T01:43:01;2.83;;;2.00;;
80409;SDS011;69746;45.596;10.154;2023-12-20T01:45:28;3.10;;;1.85;;
80409;SDS011;69746;45.596;10.154;2023-12-20T01:47:54;3.92;;;2.33;;
80409;SDS011;69746;45.596;10.154;2023-12-20T01:50:23;3.13;;;2.03;;
80409;SDS011;69746;45.596;10.154;2023-12-20T01:52:52;2.85;;;1.85;;
80409;SDS011;69746;45.596;10.154;2023-12-20T01:55:23;3.10;;;2.10;;
80409;SDS011;69746;45.596;10.154;2023-12-20T01:57:49;3.13;;;2.33;;
80409;SDS011;69746;45.596;10.154;2023-12-20T02:00:16;2.83;;;1.80;;
80409;SDS011;69746;45.596;10.154;2023-12-20T02:02:46;3.47;;;2.10;;
80409;SDS011;69746;45.596;10.154;2023-12-20T02:05:13;3.00;;;2.00;;
80409;SDS011;69746;45.596;10.154;2023-12-20T02:07:39;4.43;;;2.45;;
80409;SDS011;69746;45.596;10.154;2023-12-20T02:10:05;2.55;;;1.83;;
80409;SDS011;69746;45.596;10.154;2023-12-20T02:12:31;3.13;;;2.10;;
80409;SDS011;69746;45.596;10.154;2023-12-20T02:14:57;2.85;;;1.90;;
80409;SDS011;69746;45.596;10.154;2023-12-20T02:17:23;3.00;;;2.00;;
80409;SDS011;69746;45.596;10.154;2023-12-20T02:19:49;3.22;;;1.92;;
80409;SDS011;69746;45.596;10.154;2023-12-20T02:22:15;2.55;;;1.65;;
80409;SDS011;69746;45.596;10.154;2023-12-20T02:24:41;3.45;;;2.03;;
80409;SDS011;69746;45.596;10.154;2023-12-20T02:27:07;3.25;;;2.05;;
80409;SDS011;69746;45.596;10.154;2023-12-20T02:29:34;2.78;;;1.80;;
80409;SDS011;69746;45.596;10.154;2023-12-20T02:32:00;2.90;;;1.83;;
80409;SDS011;69746;45.596;10.154;2023-12-20T02:34:27;4.10;;;2.20;;
80409;SDS011;69746;45.596;10.154;2023-12-20T02:36:53;2.75;;;1.90;;
80409;SDS011;69746;45.596;10.154;2023-12-20T02:39:19;3.38;;;1.95;;
80409;SDS011;69746;45.596;10.154;2023-12-20T02:41:45;3.13;;;2.10;;
80409;SDS011;69746;45.596;10.154;2023-12-20T02:44:11;3.25;;;2.10;;
80409;SDS011;69746;45.596;10.154;2023-12-20T02:46:37;2.80;;;2.10;;
80409;SDS011;69746;45.596;10.154;2023-12-20T02:49:03;3.10;;;2.10;;
80409;SDS011;69746;45.596;10.154;2023-12-20T02:51:29;3.17;;;2.00;;
80409;SDS011;69746;45.596;10.154;2023-12-20T02:53:55;2.80;;;1.75;;
80409;SDS011;69746;45.596;10.154;2023-12-20T02:56:21;3.17;;;2.05;;
80409;SDS011;69746;45.596;10.154;2023-12-20T02:58:47;3.15;;;2.00;;
80409;SDS011;69746;45.596;10.154;2023-12-20T03:01:13;2.75;;;1.83;;
80409;SDS011;69746;45.596;10.154;2023-12-20T03:03:39;2.90;;;2.20;;
80409;SDS011;69746;45.596;10.154;2023-12-20T03:06:05;2.90;;;1.88;;
80409;SDS011;69746;45.596;10.154;2023-12-20T03:08:31;2.75;;;1.80;;
80409;SDS011;69746;45.596;10.154;2023-12-20T03:10:59;2.45;;;1.70;;
80409;SDS011;69746;45.596;10.154;2023-12-20T03:13:25;2.80;;;2.03;;
80409;SDS011;69746;45.596;10.154;2023-12-20T03:15:51;3.45;;;2.40;;
80409;SDS011;69746;45.596;10.154;2023-12-20T03:18:18;3.20;;;1.90;;
80409;SDS011;69746;45.596;10.154;2023-12-20T03:20:44;3.13;;;1.85;;
80409;SDS011;69746;45.596;10.154;2023-12-20T03:23:10;3.17;;;1.95;;
80409;SDS011;69746;45.596;10.154;2023-12-20T03:25:37;2.67;;;1.80;;
80409;SDS011;69746;45.596;10.154;2023-12-20T03:28:03;2.65;;;2.00;;
80409;SDS011;69746;45.596;10.154;2023-12-20T03:30:30;2.60;;;1.80;;
80409;SDS011;69746;45.596;10.154;2023-12-20T03:32:56;3.17;;;1.95;;
80409;SDS011;69746;45.596;10.154;2023-12-20T03:35:23;3.03;;;1.90;;
80409;SDS011;69746;45.596;10.154;2023-12-20T03:37:49;4.03;;;1.88;;
80409;SDS011;69746;45.596;10.154;2023-12-20T03:40:16;2.50;;;1.83;;
80409;SDS011;69746;45.596;10.154;2023-12-20T03:42:46;3.22;;;1.75;;
80409;SDS011;69746;45.596;10.154;2023-12-20T03:45:12;2.90;;;1.77;;
80409;SDS011;69746;45.596;10.154;2023-12-20T03:47:39;2.88;;;1.92;;
80409;SDS011;69746;45.596;10.154;2023-12-20T03:50:06;2.92;;;1.98;;
80409;SDS011;69746;45.596;10.154;2023-12-20T03:52:35;2.63;;;1.70;;
80409;SDS011;69746;45.596;10.154;2023-12-20T03:55:02;2.97;;;1.90;;
80409;SDS011;69746;45.596;10.154;2023-12-20T03:57:28;2.67;;;1.60;;
80409;SDS011;69746;45.596;10.154;2023-12-20T03:59:55;2.83;;;1.90;;
80409;SDS011;69746;45.596;10.154;2023-12-20T04:02:24;2.75;;;1.70;;
80409;SDS011;69746;45.596;10.154;2023-12-20T04:04:50;2.58;;;2.10;;
80409;SDS011;69746;45.596;10.154;2023-12-20T04:07:18;2.95;;;1.95;;
80409;SDS011;69746;45.596;10.154;2023-12-20T04:09:45;2.97;;;1.70;;
80409;SDS011;69746;45.596;10.154;2023-12-20T04:12:15;2.75;;;1.85;;
80409;SDS011;69746;45.596;10.154;2023-12-20T04:14:41;2.45;;;1.70;;
80409;SDS011;69746;45.596;10.154;2023-12-20T04:17:08;3.35;;;1.90;;
80409;SDS011;69746;45.596;10.154;2023-12-20T04:19:37;2.90;;;1.60;;
80409;SDS011;69746;45.596;10.154;2023-12-20T04:22:03;2.85;;;1.83;;
80409;SDS011;69746;45.596;10.154;2023-12-20T04:24:32;3.38;;;1.83;;
80409;SDS011;69746;45.596;10.154;2023-12-20T04:26:59;2.55;;;1.50;;
80409;SDS011;69746;45.596;10.154;2023-12-20T04:29:25;2.45;;;1.70;;
80409;SDS011;69746;45.596;10.154;2023-12-20T04:31:51;2.70;;;1.73;;
80409;SDS011;69746;45.596;10.154;2023-12-20T04:34:17;2.95;;;1.75;;
80409;SDS011;69746;45.596;10.154;2023-12-20T04:36:44;3.13;;;2.00;;
80409;SDS011;69746;45.596;10.154;2023-12-20T04:39:11;2.42;;;1.55;;
80409;SDS011;69746;45.596;10.154;2023-12-20T04:41:40;2.70;;;1.65;;
80409;SDS011;69746;45.596;10.154;2023-12-20T04:44:07;2.47;;;1.80;;
80409;SDS011;69746;45.596;10.154;2023-12-20T04:46:33;2.63;;;1.60;;
80409;SDS011;69746;45.596;10.154;2023-12-20T04:49:00;3.08;;;1.80;;
80409;SDS011;69746;45.596;10.154;2023-12-20T04:51:26;3.10;;;1.65;;
80409;SDS011;69746;45.596;10.154;2023-12-20T04:53:53;2.55;;;1.77;;
80409;SDS011;69746;45.596;10.154;2023-12-20T04:56:19;2.28;;;1.63;;
80409;SDS011;69746;45.596;10.154;2023-12-20T04:58:46;2.33;;;1.65;;
80409;SDS011;69746;45.596;10.154;2023-12-20T05:01:12;2.35;;;1.63;;
80409;SDS011;69746;45.596;10.154;2023-12-20T05:03:39;2.53;;;1.60;;
80409;SDS011;69746;45.596;10.154;2023-12-20T05:06:05;3.38;;;1.75;;
80409;SDS011;69746;45.596;10.154;2023-12-20T05:08:31;2.13;;;1.40;;
80409;SDS011;69746;45.596;10.154;2023-12-20T05:10:57;3.20;;;1.85;;
80409;SDS011;69746;45.596;10.154;2023-12-20T05:13:22;3.55;;;1.70;;
80409;SDS011;69746;45.596;10.154;2023-12-20T05:15:48;2.30;;;1.52;;
80409;SDS011;69746;45.596;10.154;2023-12-20T05:18:14;2.45;;;1.73;;
80409;SDS011;69746;45.596;10.154;2023-12-20T05:20:40;2.92;;;1.90;;
80409;SDS011;69746;45.596;10.154;2023-12-20T05:23:06;3.28;;;1.80;;
80409;SDS011;69746;45.596;10.154;2023-12-20T05:25:32;2.45;;;1.48;;
80409;SDS011;69746;45.596;10.154;2023-12-20T05:28:01;2.20;;;1.40;;
80409;SDS011;69746;45.596;10.154;2023-12-20T05:30:27;2.42;;;1.63;;
80409;SDS011;69746;45.596;10.154;2023-12-20T05:32:53;3.15;;;1.40;;
80409;SDS011;69746;45.596;10.154;2023-12-20T05:35:19;2.60;;;1.63;;
80409;SDS011;69746;45.596;10.154;2023-12-20T05:37:45;2.58;;;1.40;;
80409;SDS011;69746;45.596;10.154;2023-12-20T05:40:11;2.53;;;1.90;;
80409;SDS011;69746;45.596;10.154;2023-12-20T05:42:37;2.20;;;1.50;;
80409;SDS011;69746;45.596;10.154;2023-12-20T05:45:03;1.80;;;1.35;;
80409;SDS011;69746;45.596;10.154;2023-12-20T05:47:30;3.53;;;1.90;;
80409;SDS011;69746;45.596;10.154;2023-12-20T05:49:59;3.25;;;1.80;;
80409;SDS011;69746;45.596;10.154;2023-12-20T05:52:25;4.70;;;1.75;;
80409;SDS011;69746;45.596;10.154;2023-12-20T05:54:51;2.40;;;1.65;;
80409;SDS011;69746;45.596;10.154;2023-12-20T05:57:17;3.40;;;1.80;;
80409;SDS011;69746;45.596;10.154;2023-12-20T05:59:46;2.47;;;1.60;;
80409;SDS011;69746;45.596;10.154;2023-12-20T06:02:12;2.53;;;1.60;;
80409;SDS011;69746;45.596;10.154;2023-12-20T06:04:41;2.13;;;1.55;;
80409;SDS011;69746;45.596;10.154;2023-12-20T06:07:09;2.53;;;1.50;;
80409;SDS011;69746;45.596;10.154;2023-12-20T06:09:37;2.35;;;1.58;;
80409;SDS011;69746;45.596;10.154;2023-12-20T06:12:03;2.67;;;1.60;;
80409;SDS011;69746;45.596;10.154;2023-12-20T06:14:30;3.22;;;1.42;;
80409;SDS011;69746;45.596;10.154;2023-12-20T06:16:59;2.53;;;1.70;;
80409;SDS011;69746;45.596;10.154;2023-12-20T06:19:26;2.63;;;1.50;;
80409;SDS011;69746;45.596;10.154;2023-12-20T06:21:53;2.97;;;1.40;;
80409;SDS011;69746;45.596;10.154;2023-12-20T06:24:19;3.85;;;1.80;;
80409;SDS011;69746;45.596;10.154;2023-12-20T06:26:45;3.20;;;1.60;;
80409;SDS011;69746;45.596;10.154;2023-12-20T06:29:14;2.85;;;1.40;;
80409;SDS011;69746;45.596;10.154;2023-12-20T06:31:40;2.60;;;1.38;;
80409;SDS011;69746;45.596;10.154;2023-12-20T06:34:06;2.67;;;1.77;;
80409;SDS011;69746;45.596;10.154;2023-12-20T06:36:32;2.50;;;1.63;;
80409;SDS011;69746;45.596;10.154;2023-12-20T06:39:01;2.45;;;1.80;;
80409;SDS011;69746;45.596;10.154;2023-12-20T06:41:30;2.50;;;1.63;;
80409;SDS011;69746;45.596;10.154;2023-12-20T06:43:56;2.50;;;1.60;;
80409;SDS011;69746;45.596;10.154;2023-12-20T06:46:22;2.50;;;1.58;;
80409;SDS011;69746;45.596;10.154;2023-12-20T06:48:48;2.30;;;1.45;;
80409;SDS011;69746;45.596;10.154;2023-12-20T06:51:14;2.35;;;1.52;;
80409;SDS011;69746;45.596;10.154;2023-12-20T06:53:41;2.70;;;1.58;;
80409;SDS011;69746;45.596;10.154;2023-12-20T06:56:07;2.90;;;1.58;;
80409;SDS011;69746;45.596;10.154;2023-12-20T06:58:36;2.30;;;1.73;;
80409;SDS011;69746;45.596;10.154;2023-12-20T07:01:03;2.35;;;1.60;;
80409;SDS011;69746;45.596;10.154;2023-12-20T07:03:30;3.00;;;1.60;;
80409;SDS011;69746;45.596;10.154;2023-12-20T07:05:56;2.33;;;1.27;;
80409;SDS011;69746;45.596;10.154;2023-12-20T07:08:22;2.83;;;1.63;;
80409;SDS011;69746;45.596;10.154;2023-12-20T07:10:48;2.38;;;1.55;;
80409;SDS011;69746;45.596;10.154;2023-12-20T07:13:14;2.38;;;1.40;;
80409;SDS011;69746;45.596;10.154;2023-12-20T07:15:40;2.63;;;1.60;;
80409;SDS011;69746;45.596;10.154;2023-12-20T07:18:06;3.08;;;1.75;;
80409;SDS011;69746;45.596;10.154;2023-12-20T07:20:32;2.35;;;1.60;;
80409;SDS011;69746;45.596;10.154;2023-12-20T07:22:59;3.00;;;1.70;;
80409;SDS011;69746;45.596;10.154;2023-12-20T07:25:25;3.08;;;1.80;;
80409;SDS011;69746;45.596;10.154;2023-12-20T07:27:54;2.45;;;1.45;;
80409;SDS011;69746;45.596;10.154;2023-12-20T07:30:20;2.92;;;1.50;;
80409;SDS011;69746;45.596;10.154;2023-12-20T07:32:46;2.65;;;1.65;;
80409;SDS011;69746;45.596;10.154;2023-12-20T07:35:12;3.08;;;1.85;;
80409;SDS011;69746;45.596;10.154;2023-12-20T07:37:38;2.42;;;1.55;;
80409;SDS011;69746;45.596;10.154;2023-12-20T07:40:04;2.83;;;1.55;;
80409;SDS011;69746;45.596;10.154;2023-12-20T07:42:31;2.60;;;1.48;;
80409;SDS011;69746;45.596;10.154;2023-12-20T07:44:58;2.70;;;1.50;;
80409;SDS011;69746;45.596;10.154;2023-12-20T07:47:24;2.30;;;1.50;;
80409;SDS011;69746;45.596;10.154;2023-12-20T07:49:51;3.70;;;1.40;;
80409;SDS011;69746;45.596;10.154;2023-12-20T07:52:17;2.60;;;1.50;;
80409;SDS011;69746;45.596;10.154;2023-12-20T07:54:44;3.30;;;1.83;;
80409;SDS011;69746;45.596;10.154;2023-12-20T07:57:11;2.15;;;1.33;;
80409;SDS011;69746;45.596;10.154;2023-12-20T07:59:40;2.88;;;1.65;;
80409;SDS011;69746;45.596;10.154;2023-12-20T08:02:06;3.28;;;1.70;;
80409;SDS011;69746;45.596;10.154;2023-12-20T08:04:32;2.65;;;1.50;;
80409;SDS011;69746;45.596;10.154;2023-12-20T08:06:58;2.38;;;1.60;;
80409;SDS011;69746;45.596;10.154;2023-12-20T08:09:28;2.90;;;1.70;;
80409;SDS011;69746;45.596;10.154;2023-12-20T08:11:54;3.05;;;1.70;;
80409;SDS011;69746;45.596;10.154;2023-12-20T08:14:20;2.78;;;1.55;;
80409;SDS011;69746;45.596;10.154;2023-12-20T08:16:46;3.00;;;1.70;;
80409;SDS011;69746;45.596;10.154;2023-12-20T08:19:15;2.53;;;1.52;;
80409;SDS011;69746;45.596;10.154;2023-12-20T08:21:41;2.67;;;1.58;;
80409;SDS011;69746;45.596;10.154;2023-12-20T08:24:07;2.30;;;1.42;;
80409;SDS011;69746;45.596;10.154;2023-12-20T08:26:33;3.22;;;1.70;;
80409;SDS011;69746;45.596;10.154;2023-12-20T08:29:02;2.72;;;1.75;;
80409;SDS011;69746;45.596;10.154;2023-12-20T08:31:28;3.28;;;1.50;;
80409;SDS011;69746;45.596;10.154;2023-12-20T08:33:54;2.47;;;1.58;;
80409;SDS011;69746;45.596;10.154;2023-12-20T08:36:20;1.90;;;1.30;;
80409;SDS011;69746;45.596;10.154;2023-12-20T08:38:48;2.35;;;1.55;;
80409;SDS011;69746;45.596;10.154;2023-12-20T08:41:17;2.65;;;1.13;;
80409;SDS011;69746;45.596;10.154;2023-12-20T08:43:43;2.20;;;1.25;;
80409;SDS011;69746;45.596;10.154;2023-12-20T08:46:09;3.17;;;1.60;;
80409;SDS011;69746;45.596;10.154;2023-12-20T08:48:36;2.60;;;1.65;;
80409;SDS011;69746;45.596;10.154;2023-12-20T08:51:02;2.55;;;1.65;;
80409;SDS011;69746;45.596;10.154;2023-12-20T08:53:29;2.53;;;1.50;;
80409;SDS011;69746;45.596;10.154;2023-12-20T08:55:55;2.92;;;1.63;;
80409;SDS011;69746;45.596;10.154;2023-12-20T08:58:23;3.25;;;1.60;;
80409;SDS011;69746;45.596;10.154;2023-12-20T09:00:49;3.53;;;1.90;;
80409;SDS011;69746;45.596;10.154;2023-12-20T09:03:15;2.60;;;1.45;;
80409;SDS011;69746;45.596;10.154;2023-12-20T09:05:42;2.40;;;1.75;;
80409;SDS011;69746;45.596;10.154;2023-12-20T09:08:08;2.70;;;1.67;;
80409;SDS011;69746;45.596;10.154;2023-12-20T09:10:37;3.50;;;1.80;;
80409;SDS011;69746;45.596;10.154;2023-12-20T09:13:03;2.95;;;1.75;;
80409;SDS011;69746;45.596;10.154;2023-12-20T09:15:30;3.15;;;1.80;;
80409;SDS011;69746;45.596;10.154;2023-12-20T09:17:56;2.60;;;1.58;;
80409;SDS011;69746;45.596;10.154;2023-12-20T09:20:22;2.97;;;1.70;;
80409;SDS011;69746;45.596;10.154;2023-12-20T09:22:54;2.92;;;1.70;;
80409;SDS011;69746;45.596;10.154;2023-12-20T09:25:20;3.25;;;1.77;;
80409;SDS011;69746;45.596;10.154;2023-12-20T09:30:14;2.42;;;1.52;;
80409;SDS011;69746;45.596;10.154;2023-12-20T09:32:40;3.00;;;1.60;;
80409;SDS011;69746;45.596;10.154;2023-12-20T09:35:06;2.90;;;1.60;;
80409;SDS011;69746;45.596;10.154;2023-12-20T09:37:34;3.38;;;1.70;;
80409;SDS011;69746;45.596;10.154;2023-12-20T09:39:59;3.00;;;1.38;;
80409;SDS011;69746;45.596;10.154;2023-12-20T09:42:36;2.92;;;1.85;;
80409;SDS011;69746;45.596;10.154;2023-12-20T09:45:09;2.90;;;1.67;;
80409;SDS011;69746;45.596;10.154;2023-12-20T09:47:37;2.92;;;1.63;;
80409;SDS011;69746;45.596;10.154;2023-12-20T09:50:03;4.05;;;1.77;;
80409;SDS011;69746;45.596;10.154;2023-12-20T09:52:30;2.42;;;1.40;;
80409;SDS011;69746;45.596;10.154;2023-12-20T09:54:57;2.42;;;1.30;;
80409;SDS011;69746;45.596;10.154;2023-12-20T09:57:24;2.92;;;1.38;;
80409;SDS011;69746;45.596;10.154;2023-12-20T09:59:50;2.75;;;1.58;;
80409;SDS011;69746;45.596;10.154;2023-12-20T10:02:16;3.08;;;1.83;;
80409;SDS011;69746;45.596;10.154;2023-12-20T10:04:47;2.92;;;1.48;;
80409;SDS011;69746;45.596;10.154;2023-12-20T10:07:13;2.38;;;1.60;;
80409;SDS011;69746;45.596;10.154;2023-12-20T10:09:39;2.35;;;1.60;;
80409;SDS011;69746;45.596;10.154;2023-12-20T10:12:07;3.22;;;1.80;;
80409;SDS011;69746;45.596;10.154;2023-12-20T10:14:33;2.47;;;1.50;;
80409;SDS011;69746;45.596;10.154;2023-12-20T10:17:03;2.00;;;1.42;;
80409;SDS011;69746;45.596;10.154;2023-12-20T10:19:29;3.95;;;1.80;;
80409;SDS011;69746;45.596;10.154;2023-12-20T10:21:57;3.03;;;1.50;;
80409;SDS011;69746;45.596;10.154;2023-12-20T10:24:29;2.38;;;1.52;;
80409;SDS011;69746;45.596;10.154;2023-12-20T10:27:05;3.60;;;1.70;;
80409;SDS011;69746;45.596;10.154;2023-12-20T10:29:35;3.03;;;1.67;;
80409;SDS011;69746;45.596;10.154;2023-12-20T10:35:00;2.53;;;1.48;;
80409;SDS011;69746;45.596;10.154;2023-12-20T10:37:28;2.60;;;1.58;;
80409;SDS011;69746;45.596;10.154;2023-12-20T10:39:54;2.45;;;1.20;;
80409;SDS011;69746;45.596;10.154;2023-12-20T10:42:25;2.72;;;1.77;;
80409;SDS011;69746;45.596;10.154;2023-12-20T10:44:52;2.80;;;1.60;;
80409;SDS011;69746;45.596;10.154;2023-12-20T10:49:46;3.58;;;1.60;;
80409;SDS011;69746;45.596;10.154;2023-12-20T10:52:12;2.35;;;1.70;;
80409;SDS011;69746;45.596;10.154;2023-12-20T10:54:39;2.63;;;1.58;;
80409;SDS011;69746;45.596;10.154;2023-12-20T10:57:09;2.58;;;2.00;;
80409;SDS011;69746;45.596;10.154;2023-12-20T10:59:36;2.17;;;1.27;;
80409;SDS011;69746;45.596;10.154;2023-12-20T11:02:04;2.45;;;1.60;;
80409;SDS011;69746;45.596;10.154;2023-12-20T11:04:36;3.03;;;1.80;;
80409;SDS011;69746;45.596;10.154;2023-12-20T11:07:34;2.25;;;1.52;;
80409;SDS011;69746;45.596;10.154;2023-12-20T11:12:46;2.53;;;1.30;;
80409;SDS011;69746;45.596;10.154;2023-12-20T11:15:15;2.03;;;1.40;;
80409;SDS011;69746;45.596;10.154;2023-12-20T11:17:44;2.92;;;1.50;;
80409;SDS011;69746;45.596;10.154;2023-12-20T11:20:14;2.20;;;1.60;;
80409;SDS011;69746;45.596;10.154;2023-12-20T11:22:40;2.90;;;1.50;;
80409;SDS011;69746;45.596;10.154;2023-12-20T11:25:18;3.17;;;1.80;;
80409;SDS011;69746;45.596;10.154;2023-12-20T11:27:44;2.85;;;1.70;;
80409;SDS011;69746;45.596;10.154;2023-12-20T11:30:42;2.97;;;1.70;;
80409;SDS011;69746;45.596;10.154;2023-12-20T11:33:08;2.63;;;1.70;;
80409;SDS011;69746;45.596;10.154;2023-12-20T11:35:34;2.55;;;1.45;;
80409;SDS011;69746;45.596;10.154;2023-12-20T11:38:02;2.20;;;1.40;;
80409;SDS011;69746;45.596;10.154;2023-12-20T11:40:30;2.78;;;1.70;;
80409;SDS011;69746;45.596;10.154;2023-12-20T11:43:00;2.85;;;1.50;;
80409;SDS011;69746;45.596;10.154;2023-12-20T11:45:26;3.15;;;1.63;;
80409;SDS011;69746;45.596;10.154;2023-12-20T11:47:52;2.50;;;1.48;;
80409;SDS011;69746;45.596;10.154;2023-12-20T11:50:23;2.45;;;1.73;;
80409;SDS011;69746;45.596;10.154;2023-12-20T11:52:51;2.88;;;1.60;;
80409;SDS011;69746;45.596;10.154;2023-12-20T11:55:18;2.70;;;1.70;;
80409;SDS011;69746;45.596;10.154;2023-12-20T11:57:44;2.30;;;1.38;;
80409;SDS011;69746;45.596;10.154;2023-12-20T12:00:10;2.67;;;1.85;;
80409;SDS011;69746;45.596;10.154;2023-12-20T12:02:37;2.53;;;1.60;;
80409;SDS011;69746;45.596;10.154;2023-12-20T12:05:03;2.03;;;1.50;;
80409;SDS011;69746;45.596;10.154;2023-12-20T12:07:32;3.05;;;1.90;;
80409;SDS011;69746;45.596;10.154;2023-12-20T12:10:02;2.80;;;1.67;;
80409;SDS011;69746;45.596;10.154;2023-12-20T12:12:29;1.92;;;1.35;;
80409;SDS011;69746;45.596;10.154;2023-12-20T12:14:56;2.28;;;1.35;;
80409;SDS011;69746;45.596;10.154;2023-12-20T12:17:23;2.45;;;1.58;;
80409;SDS011;69746;45.596;10.154;2023-12-20T12:19:51;2.17;;;1.55;;
80409;SDS011;69746;45.596;10.154;2023-12-20T12:22:29;3.40;;;1.92;;
80409;SDS011;69746;45.596;10.154;2023-12-20T12:24:58;2.33;;;1.48;;
80409;SDS011;69746;45.596;10.154;2023-12-20T12:27:25;2.28;;;1.48;;
80409;SDS011;69746;45.596;10.154;2023-12-20T12:30:03;2.53;;;1.63;;
80409;SDS011;69746;45.596;10.154;2023-12-20T12:32:32;3.72;;;1.55;;
80409;SDS011;69746;45.596;10.154;2023-12-20T12:34:58;2.97;;;1.60;;
80409;SDS011;69746;45.596;10.154;2023-12-20T12:37:24;2.80;;;1.80;;
80409;SDS011;69746;45.596;10.154;2023-12-20T12:39:54;2.70;;;1.60;;
80409;SDS011;69746;45.596;10.154;2023-12-20T12:42:20;2.30;;;1.50;;
80409;SDS011;69746;45.596;10.154;2023-12-20T12:44:47;2.30;;;1.58;;
80409;SDS011;69746;45.596;10.154;2023-12-20T12:47:12;2.20;;;1.45;;
80409;SDS011;69746;45.596;10.154;2023-12-20T12:49:41;2.95;;;1.65;;
80409;SDS011;69746;45.596;10.154;2023-12-20T12:52:07;2.75;;;1.52;;
80409;SDS011;69746;45.596;10.154;2023-12-20T12:54:33;2.38;;;1.50;;
80409;SDS011;69746;45.596;10.154;2023-12-20T12:56:59;2.63;;;1.52;;
80409;SDS011;69746;45.596;10.154;2023-12-20T12:59:25;3.83;;;1.73;;
80409;SDS011;69746;45.596;10.154;2023-12-20T13:01:51;2.60;;;1.65;;
80409;SDS011;69746;45.596;10.154;2023-12-20T13:04:17;2.45;;;1.52;;
80409;SDS011;69746;45.596;10.154;2023-12-20T13:06:43;2.72;;;1.60;;
80409;SDS011;69746;45.596;10.154;2023-12-20T13:09:09;2.53;;;1.50;;
80409;SDS011;69746;45.596;10.154;2023-12-20T13:11:40;2.88;;;1.55;;
80409;SDS011;69746;45.596;10.154;2023-12-20T13:14:06;3.05;;;1.80;;
80409;SDS011;69746;45.596;10.154;2023-12-20T13:16:36;2.30;;;1.38;;
80409;SDS011;69746;45.596;10.154;2023-12-20T13:19:01;2.83;;;1.63;;
80409;SDS011;69746;45.596;10.154;2023-12-20T13:21:30;3.03;;;1.40;;
80409;SDS011;69746;45.596;10.154;2023-12-20T13:23:56;2.95;;;1.60;;
80409;SDS011;69746;45.596;10.154;2023-12-20T13:26:22;2.45;;;1.55;;
80409;SDS011;69746;45.596;10.154;2023-12-20T13:28:48;2.55;;;1.63;;
80409;SDS011;69746;45.596;10.154;2023-12-20T13:31:13;2.67;;;1.67;;
80409;SDS011;69746;45.596;10.154;2023-12-20T13:33:42;2.63;;;1.60;;
80409;SDS011;69746;45.596;10.154;2023-12-20T13:36:08;2.72;;;1.58;;
80409;SDS011;69746;45.596;10.154;2023-12-20T13:38:34;2.58;;;1.63;;
80409;SDS011;69746;45.596;10.154;2023-12-20T13:41:00;2.63;;;1.42;;
80409;SDS011;69746;45.596;10.154;2023-12-20T13:43:25;2.45;;;1.40;;
80409;SDS011;69746;45.596;10.154;2023-12-20T13:45:51;2.75;;;1.67;;
80409;SDS011;69746;45.596;10.154;2023-12-20T13:48:17;3.08;;;1.60;;
80409;SDS011;69746;45.596;10.154;2023-12-20T13:50:43;3.10;;;1.88;;
80409;SDS011;69746;45.596;10.154;2023-12-20T13:53:09;2.35;;;1.70;;
80409;SDS011;69746;45.596;10.154;2023-12-20T13:55:35;2.35;;;1.48;;
80409;SDS011;69746;45.596;10.154;2023-12-20T13:58:01;2.85;;;1.50;;
80409;SDS011;69746;45.596;10.154;2023-12-20T14:00:27;2.75;;;1.70;;
80409;SDS011;69746;45.596;10.154;2023-12-20T14:02:53;3.58;;;1.70;;
80409;SDS011;69746;45.596;10.154;2023-12-20T14:05:20;2.70;;;1.60;;
80409;SDS011;69746;45.596;10.154;2023-12-20T14:07:48;2.40;;;1.40;;
80409;SDS011;69746;45.596;10.154;2023-12-20T14:10:15;3.30;;;1.83;;
80409;SDS011;69746;45.596;10.154;2023-12-20T14:12:41;2.45;;;1.50;;
80409;SDS011;69746;45.596;10.154;2023-12-20T14:15:07;2.65;;;1.70;;
80409;SDS011;69746;45.596;10.154;2023-12-20T14:17:36;2.67;;;1.85;;
80409;SDS011;69746;45.596;10.154;2023-12-20T14:20:04;2.13;;;1.40;;
80409;SDS011;69746;45.596;10.154;2023-12-20T14:22:32;2.47;;;1.65;;
80409;SDS011;69746;45.596;10.154;2023-12-20T14:24:58;2.50;;;1.45;;
80409;SDS011;69746;45.596;10.154;2023-12-20T14:27:24;2.92;;;1.60;;
80409;SDS011;69746;45.596;10.154;2023-12-20T14:29:53;2.78;;;1.70;;
80409;SDS011;69746;45.596;10.154;2023-12-20T14:32:20;2.78;;;1.55;;
80409;SDS011;69746;45.596;10.154;2023-12-20T14:34:46;2.40;;;1.50;;
80409;SDS011;69746;45.596;10.154;2023-12-20T14:37:18;2.90;;;1.70;;
80409;SDS011;69746;45.596;10.154;2023-12-20T14:39:45;2.72;;;1.67;;
80409;SDS011;69746;45.596;10.154;2023-12-20T14:42:11;2.50;;;1.67;;